Time;durP1;ratioP1;P1;durP2;ratioP2;P2;SDS_P1;SDS_P2;PMS_P1;PMS_P2;Temp;Humidity;BMP_temperature;BMP_pressure;BME280_temperature;BME280_humidity;BME280_pressure;Samples;Min_cycle;Max_cycle;Signal;HPM_P1;HPM_P2
2022/07/10 18:39:56;;;;;;;3.27;1.47;;;;;;;20.31;64.81;147249.88;1820740;79;22246;-55
2022/07/10 18:42:23;;;;;;;3.90;1.70;;;;;;;20.26;64.62;147238.50;1793819;80;21031;-56
2022/07/10 18:44:50;;;;;;;3.90;1.80;;;;;;;20.26;64.87;147237.25;1788852;80;21473;-54
2022/07/10 18:47:16;;;;;;;3.27;1.80;;;;;;;20.27;65.08;147239.75;1766931;80;21033;-54
2022/07/10 18:49:44;;;;;;;4.35;1.80;;;;;;;20.27;65.45;147239.75;1794024;80;21149;-55
2022/07/10 18:52:11;;;;;;;3.12;1.75;;;;;;;20.33;64.91;147254.94;1794081;80;21064;-56
2022/07/10 18:54:37;;;;;;;3.27;1.70;;;;;;;20.33;65.13;147254.94;1793743;80;21056;-53
2022/07/10 18:57:08;;;;;;;5.25;2.27;;;;;;;20.33;64.98;147254.94;1761829;80;21024;-54
2022/07/10 18:59:35;;;;;;;3.52;1.55;;;;;;;20.31;65.21;147251.13;1756589;80;21043;-55
2022/07/10 19:02:02;;;;;;;4.17;1.52;;;;;;;20.28;65.12;147242.31;1756618;82;21059;-58
2022/07/10 19:04:29;;;;;;;2.70;1.80;;;;;;;20.21;65.58;147224.61;1756604;80;21043;-56
2022/07/10 19:06:57;;;;;;;4.17;1.70;;;;;;;20.14;65.79;147208.17;1778545;80;21055;-56
2022/07/10 19:09:26;;;;;;;2.95;1.45;;;;;;;20.08;65.97;147194.28;1793816;80;21004;-55
2022/07/10 19:11:53;;;;;;;5.03;1.65;;;;;;;20.00;66.20;147174.08;1794146;80;21023;-60
2022/07/10 19:14:21;;;;;;;3.37;1.90;;;;;;;19.90;66.59;147148.81;1793830;80;21004;-55
2022/07/10 19:16:48;;;;;;;3.58;1.62;;;;;;;19.80;67.05;147123.56;1791433;80;21075;-54
2022/07/10 19:19:15;;;;;;;4.92;1.87;;;;;;;19.73;67.51;147108.37;1783014;80;20971;-55
2022/07/10 19:21:42;;;;;;;3.85;1.80;;;;;;;19.67;68.23;147091.98;1778409;79;21097;-55
2022/07/10 19:24:13;;;;;;;4.72;1.80;;;;;;;19.58;68.69;147070.44;1778019;79;21039;-55
2022/07/10 19:26:40;;;;;;;3.77;2.05;;;;;;;19.54;69.19;147060.38;1778551;79;21027;-55
2022/07/10 19:29:07;;;;;;;4.72;1.80;;;;;;;19.49;69.70;147047.73;1778499;81;21018;-55
2022/07/10 19:31:35;;;;;;;3.00;1.60;;;;;;;19.44;70.09;147035.11;1778358;79;21551;-55
2022/07/10 19:34:03;;;;;;;3.37;1.82;;;;;;;19.40;70.65;147025.00;1778426;79;21055;-54
2022/07/10 19:36:29;;;;;;;4.22;2.02;;;;;;;19.35;71.05;147013.63;1778461;79;21540;-55
2022/07/10 19:38:56;;;;;;;7.70;2.00;;;;;;;19.34;71.32;147009.86;1777351;79;21536;-55
2022/07/10 19:41:24;;;;;;;4.62;2.08;;;;;;;19.32;71.48;147006.06;1776321;79;21477;-55
2022/07/10 19:43:51;;;;;;;2.65;1.67;;;;;;;19.30;71.63;147002.25;1776175;79;20995;-54
2022/07/10 19:46:17;;;;;;;3.70;2.05;;;;;;;19.30;71.87;147001.00;1776069;79;21031;-55
2022/07/10 19:48:47;;;;;;;5.58;2.27;;;;;;;19.28;72.17;146997.23;1776076;79;21556;-55
2022/07/10 19:51:13;;;;;;;4.08;1.80;;;;;;;19.25;72.42;146989.63;1775404;79;21078;-55
2022/07/10 19:53:41;;;;;;;3.10;1.72;;;;;;;19.23;72.72;146984.61;1775540;79;21019;-55
2022/07/10 19:56:08;;;;;;;4.92;2.22;;;;;;;19.21;72.98;146978.25;1775559;79;21059;-55
2022/07/10 19:58:36;;;;;;;2.95;1.80;;;;;;;19.19;73.17;146974.50;1775571;79;21023;-54
2022/07/10 20:01:02;;;;;;;4.65;2.50;;;;;;;19.18;73.40;146971.94;1775565;79;21015;-55
2022/07/10 20:03:29;;;;;;;3.83;2.20;;;;;;;19.15;73.55;146964.38;1775534;79;21496;-55
2022/07/10 20:05:58;;;;;;;4.92;2.22;;;;;;;19.12;73.85;146956.81;1775578;79;21055;-55
2022/07/10 20:08:25;;;;;;;3.62;2.10;;;;;;;19.07;74.14;146945.44;1775653;79;21023;-55
2022/07/10 20:10:52;;;;;;;6.55;2.17;;;;;;;19.04;74.43;146937.88;1775616;80;21513;-54
2022/07/10 20:13:20;;;;;;;3.60;2.17;;;;;;;19.00;74.75;146926.50;1775722;79;21016;-55
2022/07/10 20:15:47;;;;;;;5.72;2.30;;;;;;;18.93;75.09;146910.12;1775503;81;21039;-55
2022/07/10 20:18:15;;;;;;;4.45;2.27;;;;;;;18.86;75.59;146892.44;1775808;79;21067;-54
2022/07/10 20:20:43;;;;;;;4.25;2.00;;;;;;;18.82;75.90;146883.58;1775712;79;21023;-55
2022/07/10 20:23:10;;;;;;;5.17;1.98;;;;;;;18.79;76.31;146876.02;1775867;79;21059;-55
2022/07/10 20:25:38;;;;;;;3.75;2.05;;;;;;;18.78;76.51;146873.52;1775691;79;21482;-55
2022/07/10 20:28:05;;;;;;;6.40;2.22;;;;;;;18.77;76.59;146870.97;1775806;79;21015;-55
2022/07/10 20:30:32;;;;;;;4.15;2.05;;;;;;;18.76;76.69;146868.45;1775519;79;21039;-55
2022/07/10 20:32:58;;;;;;;3.17;1.90;;;;;;;18.74;76.87;146863.34;1775587;79;21027;-55
2022/07/10 20:35:26;;;;;;;9.03;2.35;;;;;;;18.73;77.00;146860.84;1775525;79;21027;-54
2022/07/10 20:37:54;;;;;;;5.53;1.70;;;;;;;18.73;77.13;146859.59;1775727;79;21116;-54
2022/07/10 20:40:22;;;;;;;3.37;1.90;;;;;;;18.71;77.40;146855.78;1775536;79;21039;-55
2022/07/10 20:42:49;;;;;;;3.50;2.17;;;;;;;18.72;77.40;146858.28;1775663;79;21004;-54
2022/07/10 20:45:17;;;;;;;3.85;1.92;;;;;;;18.72;77.50;146857.03;1775648;79;21548;-56
2022/07/10 20:47:45;;;;;;;4.42;2.30;;;;;;;18.71;77.60;146855.78;1775528;79;21070;-55
2022/07/10 20:50:12;;;;;;;6.40;2.02;;;;;;;18.69;77.61;146849.47;1775526;79;21474;-55
2022/07/10 20:52:44;;;;;;;3.85;2.12;;;;;;;18.65;77.88;146841.91;1775535;79;20996;-55
2022/07/10 20:55:16;;;;;;;4.53;1.90;;;;;;;18.60;78.03;146829.30;1775534;79;21011;-55
2022/07/10 20:57:43;;;;;;;5.30;2.00;;;;;;;18.56;78.42;146817.94;1776221;79;21481;-55
2022/07/10 21:00:12;;;;;;;4.15;1.95;;;;;;;18.51;78.66;146806.56;1776019;79;21467;-55
2022/07/10 21:02:40;;;;;;;6.60;2.35;;;;;;;18.51;78.86;146806.56;1775727;79;20979;-56
2022/07/10 21:05:08;;;;;;;3.98;2.27;;;;;;;18.50;79.08;146802.81;1775522;79;21003;-55
2022/07/10 21:07:35;;;;;;;3.27;1.70;;;;;;;18.48;79.24;146797.75;1775751;79;20975;-55
2022/07/10 21:10:05;;;;;;;3.50;2.10;;;;;;;18.44;79.40;146790.19;1775671;79;21031;-54
2022/07/10 21:12:33;;;;;;;3.85;2.00;;;;;;;18.41;79.64;146782.58;1775812;79;20967;-55
2022/07/10 21:15:00;;;;;;;3.58;2.00;;;;;;;18.39;79.71;146777.56;1775524;81;21026;-55
2022/07/10 21:17:27;;;;;;;5.45;1.90;;;;;;;18.39;79.94;146777.56;1775595;79;21134;-55
2022/07/10 21:19:54;;;;;;;4.37;1.98;;;;;;;18.37;80.12;146772.52;1775471;79;21019;-54
2022/07/10 21:22:21;;;;;;;2.95;1.92;;;;;;;18.36;80.41;146769.97;1775505;79;20979;-54
2022/07/10 21:24:48;;;;;;;4.00;2.20;;;;;;;18.35;80.46;146767.47;1775527;79;20995;-54
2022/07/10 21:27:14;;;;;;;4.40;1.85;;;;;;;18.34;80.85;146763.66;1775489;79;21023;-55
2022/07/10 21:29:41;;;;;;;3.12;2.00;;;;;;;18.30;81.04;146753.59;1775765;81;21508;-54
2022/07/10 21:32:10;;;;;;;2.70;1.70;;;;;;;18.27;81.33;146747.28;1775490;79;21012;-56
2022/07/10 21:34:37;;;;;;;4.12;2.20;;;;;;;18.25;81.63;146740.97;1775704;79;21540;-56
2022/07/10 21:37:04;;;;;;;6.42;1.90;;;;;;;18.21;81.88;146733.36;1775860;79;21051;-55
2022/07/10 21:39:31;;;;;;;6.03;2.00;;;;;;;18.20;82.03;146730.86;1775550;79;21004;-55
2022/07/10 21:41:58;;;;;;;3.85;1.98;;;;;;;18.20;82.10;146729.61;1775546;79;21493;-55
2022/07/10 21:44:25;;;;;;;4.50;2.25;;;;;;;18.20;82.38;146729.61;1775526;79;21545;-55
2022/07/10 21:46:52;;;;;;;4.10;2.55;;;;;;;18.18;82.77;146724.56;1775546;79;21489;-55
2022/07/10 21:49:18;;;;;;;3.72;2.10;;;;;;;18.14;83.18;146714.44;1775414;79;21496;-55
2022/07/10 21:51:45;;;;;;;4.05;2.12;;;;;;;18.11;83.50;146708.14;1775411;79;21042;-55
2022/07/10 21:54:14;;;;;;;7.67;2.02;;;;;;;18.08;83.97;146699.33;1775497;79;21176;-55
2022/07/10 21:56:40;;;;;;;3.65;2.15;;;;;;;18.07;84.33;146696.81;1775620;81;21501;-55
2022/07/10 21:59:08;;;;;;;3.58;2.30;;;;;;;18.05;84.45;146691.77;1775743;79;21183;-54
2022/07/10 22:01:35;;;;;;;3.33;2.12;;;;;;;18.04;84.89;146690.52;1775436;79;21050;-55
2022/07/10 22:04:02;;;;;;;4.17;2.30;;;;;;;18.00;85.26;146680.41;1775736;81;21548;-55
2022/07/10 22:06:29;;;;;;;6.87;2.35;;;;;;;17.97;85.72;146672.84;1775476;79;21074;-55
2022/07/10 22:08:56;;;;;;;4.25;2.15;;;;;;;17.92;85.96;146661.48;1775629;79;21191;-55
2022/07/10 22:11:23;;;;;;;5.12;2.27;;;;;;;17.89;86.38;146653.94;1775484;79;21031;-55
2022/07/10 22:13:52;;;;;;;5.60;2.58;;;;;;;17.89;86.97;146652.67;1775468;81;21032;-54
2022/07/10 22:16:20;;;;;;;5.03;2.40;;;;;;;17.88;87.42;146650.13;1775371;79;21497;-55
2022/07/10 22:18:48;;;;;;;3.98;2.00;;;;;;;17.84;87.46;146640.06;1775443;79;21212;-55
2022/07/10 22:21:15;;;;;;;3.92;2.10;;;;;;;17.80;87.80;146631.20;1775405;81;21076;-55
2022/07/10 22:23:42;;;;;;;3.62;2.00;;;;;;;17.76;88.12;146621.09;1775677;81;21067;-54
2022/07/10 22:26:10;;;;;;;8.10;2.30;;;;;;;17.75;88.35;146618.55;1775628;79;21071;-54
2022/07/10 22:28:37;;;;;;;3.62;2.33;;;;;;;17.74;88.59;146617.30;1775436;79;21032;-54
2022/07/10 22:31:17;;;;;;;3.70;2.30;;;;;;;17.73;88.70;146613.48;1775726;79;21016;-54
2022/07/10 22:33:46;;;;;;;3.35;2.00;;;;;;;17.69;88.72;146603.44;1775456;81;21063;-54
2022/07/10 22:36:14;;;;;;;6.55;2.65;;;;;;;17.66;88.99;146595.88;1775806;79;21442;-54
2022/07/10 22:38:42;;;;;;;3.35;2.00;;;;;;;17.63;89.25;146588.27;1775662;79;21023;-53
2022/07/10 22:41:10;;;;;;;4.62;2.42;;;;;;;17.62;89.40;146585.77;1759729;81;21035;-54
2022/07/10 22:43:40;;;;;;;3.70;2.40;;;;;;;17.58;89.62;146578.22;1759705;80;21100;-54
2022/07/10 22:46:08;;;;;;;3.95;2.37;;;;;;;17.55;89.88;146569.36;1759955;80;21077;-55
2022/07/10 22:48:36;;;;;;;5.85;2.90;;;;;;;17.50;90.03;146558.05;1759790;80;21529;-54
2022/07/10 22:51:03;;;;;;;8.15;2.60;;;;;;;17.45;90.17;146545.39;1759707;81;21019;-55
2022/07/10 22:53:30;;;;;;;5.90;2.30;;;;;;;17.41;90.38;146534.08;1759725;80;21015;-54
2022/07/10 22:55:58;;;;;;;5.90;2.30;;;;;;;17.39;90.45;146529.03;1759716;80;21034;-54
2022/07/10 22:58:31;;;;;;;3.70;2.30;;;;;;;17.36;90.61;146523.97;1759681;80;21023;-55
2022/07/10 23:01:00;;;;;;;9.73;2.60;;;;;;;17.36;90.63;146522.72;1759970;80;21520;-55
2022/07/10 23:03:28;;;;;;;5.70;2.95;;;;;;;17.34;90.67;146517.67;1759901;80;21588;-54
2022/07/10 23:05:55;;;;;;;6.58;2.50;;;;;;;17.31;90.75;146510.12;1759688;80;21027;-54
2022/07/10 23:08:22;;;;;;;4.58;2.42;;;;;;;17.27;90.68;146501.27;1759731;81;21027;-54
2022/07/10 23:10:49;;;;;;;5.08;2.37;;;;;;;17.25;90.78;146494.97;1759727;80;21074;-54
2022/07/10 23:13:17;;;;;;;4.60;2.58;;;;;;;17.21;90.75;146486.16;1759745;80;20995;-53
2022/07/10 23:15:45;;;;;;;3.85;2.47;;;;;;;17.18;90.80;146478.59;1759802;80;21082;-54
2022/07/10 23:18:12;;;;;;;4.22;3.08;;;;;;;17.16;90.87;146472.30;1759691;80;21019;-53
2022/07/10 23:20:39;;;;;;;5.35;3.10;;;;;;;17.12;90.90;146464.75;1759667;80;21019;-54
2022/07/10 23:23:06;;;;;;;7.80;3.02;;;;;;;17.09;91.09;146455.89;1759744;80;21042;-54
2022/07/10 23:25:34;;;;;;;5.78;3.80;;;;;;;17.04;91.35;146444.53;1759791;81;21031;-53
2022/07/10 23:28:01;;;;;;;7.45;3.17;;;;;;;17.00;91.37;146434.48;1759945;80;21023;-54
2022/07/10 23:30:28;;;;;;;5.97;3.70;;;;;;;16.99;91.43;146431.94;1759911;80;21019;-53
2022/07/10 23:32:55;;;;;;;5.90;3.02;;;;;;;16.96;91.44;146424.38;1759998;80;21070;-53
2022/07/10 23:35:22;;;;;;;6.30;3.02;;;;;;;16.92;91.47;146414.33;1759918;80;21023;-53
2022/07/10 23:37:48;;;;;;;6.72;3.33;;;;;;;16.89;91.67;146406.72;1760279;80;21029;-53
2022/07/10 23:40:15;;;;;;;5.85;3.52;;;;;;;16.86;91.89;146399.17;1762149;80;21032;-54
2022/07/10 23:42:42;;;;;;;7.10;3.62;;;;;;;16.84;91.93;146395.42;1764462;81;20988;-53
2022/07/10 23:45:10;;;;;;;4.60;2.92;;;;;;;16.83;91.98;146391.62;1764465;80;21027;-54
2022/07/10 23:47:36;;;;;;;7.25;3.70;;;;;;;16.83;91.95;146392.88;1764422;80;21070;-54
2022/07/10 23:50:07;;;;;;;5.72;3.85;;;;;;;16.83;91.89;146391.62;1764418;80;21023;-53
2022/07/10 23:52:40;;;;;;;5.58;3.87;;;;;;;16.81;91.86;146386.56;1764446;80;20996;-54
2022/07/10 23:55:10;;;;;;;7.47;4.17;;;;;;;16.77;91.99;146376.47;1764633;80;21474;-54
2022/07/10 23:57:37;;;;;;;6.87;3.30;;;;;;;16.75;92.12;146372.67;1764522;80;21014;-54
